sensor_id;sensor_type;location;lat;lon;timestamp;P1;durP1;ratioP1;P2;durP2;ratioP2
50731;SDS011;36700;50.488;2.544;2023-06-14T00:00:13;9.60;;;4.97;;
50731;SDS011;36700;50.488;2.544;2023-06-14T00:02:40;11.57;;;5.03;;
50731;SDS011;36700;50.488;2.544;2023-06-14T00:05:07;10.40;;;5.30;;
50731;SDS011;36700;50.488;2.544;2023-06-14T00:07:37;11.50;;;5.50;;
50731;SDS011;36700;50.488;2.544;2023-06-14T00:10:08;9.23;;;4.82;;
50731;SDS011;36700;50.488;2.544;2023-06-14T00:12:35;11.15;;;4.85;;
50731;SDS011;36700;50.488;2.544;2023-06-14T00:15:02;10.68;;;4.70;;
50731;SDS011;36700;50.488;2.544;2023-06-14T00:17:28;9.18;;;4.93;;
50731;SDS011;36700;50.488;2.544;2023-06-14T00:19:59;10.30;;;4.72;;
50731;SDS011;36700;50.488;2.544;2023-06-14T00:22:25;10.55;;;4.78;;
50731;SDS011;36700;50.488;2.544;2023-06-14T00:24:51;10.77;;;4.90;;
50731;SDS011;36700;50.488;2.544;2023-06-14T00:27:17;11.52;;;5.07;;
50731;SDS011;36700;50.488;2.544;2023-06-14T00:29:44;11.38;;;4.80;;
50731;SDS011;36700;50.488;2.544;2023-06-14T00:32:10;10.57;;;4.97;;
50731;SDS011;36700;50.488;2.544;2023-06-14T00:34:35;11.45;;;5.30;;
50731;SDS011;36700;50.488;2.544;2023-06-14T00:37:01;11.57;;;4.90;;
50731;SDS011;36700;50.488;2.544;2023-06-14T00:39:27;14.00;;;5.20;;
50731;SDS011;36700;50.488;2.544;2023-06-14T00:41:53;8.93;;;4.53;;
50731;SDS011;36700;50.488;2.544;2023-06-14T00:44:19;10.90;;;4.88;;
50731;SDS011;36700;50.488;2.544;2023-06-14T00:46:47;10.40;;;5.20;;
50731;SDS011;36700;50.488;2.544;2023-06-14T00:49:14;11.52;;;4.88;;
50731;SDS011;36700;50.488;2.544;2023-06-14T00:51:41;11.75;;;4.55;;
50731;SDS011;36700;50.488;2.544;2023-06-14T00:54:08;11.32;;;4.63;;
50731;SDS011;36700;50.488;2.544;2023-06-14T00:56:37;11.10;;;5.15;;
50731;SDS011;36700;50.488;2.544;2023-06-14T00:59:04;9.63;;;4.68;;
50731;SDS011;36700;50.488;2.544;2023-06-14T01:01:31;10.45;;;4.68;;
50731;SDS011;36700;50.488;2.544;2023-06-14T01:04:00;13.57;;;5.05;;
50731;SDS011;36700;50.488;2.544;2023-06-14T01:06:35;10.63;;;4.95;;
50731;SDS011;36700;50.488;2.544;2023-06-14T01:12:47;11.07;;;4.65;;
50731;SDS011;36700;50.488;2.544;2023-06-14T01:14:50;9.73;;;4.65;;
50731;SDS011;36700;50.488;2.544;2023-06-14T01:17:19;10.18;;;4.80;;
50731;SDS011;36700;50.488;2.544;2023-06-14T01:19:46;13.07;;;4.55;;
50731;SDS011;36700;50.488;2.544;2023-06-14T01:22:12;10.25;;;4.50;;
50731;SDS011;36700;50.488;2.544;2023-06-14T01:24:38;10.32;;;4.68;;
50731;SDS011;36700;50.488;2.544;2023-06-14T01:27:05;10.38;;;4.63;;
50731;SDS011;36700;50.488;2.544;2023-06-14T01:29:32;12.93;;;5.07;;
50731;SDS011;36700;50.488;2.544;2023-06-14T01:31:59;11.13;;;4.63;;
50731;SDS011;36700;50.488;2.544;2023-06-14T01:34:26;10.82;;;4.63;;
50731;SDS011;36700;50.488;2.544;2023-06-14T01:36:52;11.68;;;4.90;;
50731;SDS011;36700;50.488;2.544;2023-06-14T01:39:22;11.20;;;5.15;;
50731;SDS011;36700;50.488;2.544;2023-06-14T01:41:48;11.27;;;5.00;;
50731;SDS011;36700;50.488;2.544;2023-06-14T01:44:16;11.23;;;4.95;;
50731;SDS011;36700;50.488;2.544;2023-06-14T01:46:44;10.43;;;4.70;;
50731;SDS011;36700;50.488;2.544;2023-06-14T01:49:11;9.85;;;4.50;;
50731;SDS011;36700;50.488;2.544;2023-06-14T01:51:37;10.88;;;4.75;;
50731;SDS011;36700;50.488;2.544;2023-06-14T01:54:03;11.73;;;4.53;;
50731;SDS011;36700;50.488;2.544;2023-06-14T01:56:29;12.18;;;4.80;;
50731;SDS011;36700;50.488;2.544;2023-06-14T01:58:55;10.70;;;4.43;;
50731;SDS011;36700;50.488;2.544;2023-06-14T02:01:21;11.65;;;5.00;;
50731;SDS011;36700;50.488;2.544;2023-06-14T02:03:47;11.65;;;4.70;;
50731;SDS011;36700;50.488;2.544;2023-06-14T02:06:14;12.77;;;4.63;;
50731;SDS011;36700;50.488;2.544;2023-06-14T02:08:41;10.23;;;4.93;;
50731;SDS011;36700;50.488;2.544;2023-06-14T02:11:08;11.98;;;4.85;;
50731;SDS011;36700;50.488;2.544;2023-06-14T02:13:34;11.13;;;4.40;;
50731;SDS011;36700;50.488;2.544;2023-06-14T02:16:00;9.05;;;4.43;;
50731;SDS011;36700;50.488;2.544;2023-06-14T02:18:26;9.63;;;4.15;;
50731;SDS011;36700;50.488;2.544;2023-06-14T02:20:52;8.75;;;4.45;;
50731;SDS011;36700;50.488;2.544;2023-06-14T02:23:18;9.82;;;4.40;;
50731;SDS011;36700;50.488;2.544;2023-06-14T02:25:45;11.38;;;5.00;;
50731;SDS011;36700;50.488;2.544;2023-06-14T02:28:11;10.77;;;4.68;;
50731;SDS011;36700;50.488;2.544;2023-06-14T02:30:37;11.38;;;4.50;;
50731;SDS011;36700;50.488;2.544;2023-06-14T02:33:04;10.77;;;3.92;;
50731;SDS011;36700;50.488;2.544;2023-06-14T02:35:30;9.05;;;4.40;;
50731;SDS011;36700;50.488;2.544;2023-06-14T02:37:56;10.82;;;4.47;;
50731;SDS011;36700;50.488;2.544;2023-06-14T02:40:22;10.75;;;4.80;;
50731;SDS011;36700;50.488;2.544;2023-06-14T02:42:48;8.38;;;4.25;;
50731;SDS011;36700;50.488;2.544;2023-06-14T02:45:15;9.90;;;4.45;;
50731;SDS011;36700;50.488;2.544;2023-06-14T02:47:40;10.20;;;4.28;;
50731;SDS011;36700;50.488;2.544;2023-06-14T02:50:07;11.13;;;4.43;;
50731;SDS011;36700;50.488;2.544;2023-06-14T02:52:33;9.82;;;4.28;;
50731;SDS011;36700;50.488;2.544;2023-06-14T02:54:59;10.40;;;4.30;;
50731;SDS011;36700;50.488;2.544;2023-06-14T02:57:25;10.50;;;4.75;;
50731;SDS011;36700;50.488;2.544;2023-06-14T02:59:51;10.35;;;4.40;;
50731;SDS011;36700;50.488;2.544;2023-06-14T03:02:17;10.85;;;4.35;;
50731;SDS011;36700;50.488;2.544;2023-06-14T03:04:43;10.23;;;4.47;;
50731;SDS011;36700;50.488;2.544;2023-06-14T03:07:12;10.38;;;4.45;;
50731;SDS011;36700;50.488;2.544;2023-06-14T03:09:38;13.90;;;4.90;;
50731;SDS011;36700;50.488;2.544;2023-06-14T03:12:05;8.93;;;4.47;;
50731;SDS011;36700;50.488;2.544;2023-06-14T03:14:35;12.75;;;4.65;;
50731;SDS011;36700;50.488;2.544;2023-06-14T03:17:01;9.82;;;4.40;;
50731;SDS011;36700;50.488;2.544;2023-06-14T03:19:30;11.23;;;4.60;;
50731;SDS011;36700;50.488;2.544;2023-06-14T03:21:56;9.25;;;4.60;;
50731;SDS011;36700;50.488;2.544;2023-06-14T03:24:25;10.65;;;4.85;;
50731;SDS011;36700;50.488;2.544;2023-06-14T03:26:54;11.40;;;4.40;;
50731;SDS011;36700;50.488;2.544;2023-06-14T03:29:20;10.15;;;4.50;;
50731;SDS011;36700;50.488;2.544;2023-06-14T03:32:02;11.00;;;4.30;;
50731;SDS011;36700;50.488;2.544;2023-06-14T03:34:28;9.75;;;4.35;;
50731;SDS011;36700;50.488;2.544;2023-06-14T03:36:54;11.15;;;4.38;;
50731;SDS011;36700;50.488;2.544;2023-06-14T03:39:21;10.05;;;4.45;;
50731;SDS011;36700;50.488;2.544;2023-06-14T03:41:57;10.25;;;4.40;;
50731;SDS011;36700;50.488;2.544;2023-06-14T03:44:23;9.75;;;4.32;;
50731;SDS011;36700;50.488;2.544;2023-06-14T03:46:49;11.05;;;4.32;;
50731;SDS011;36700;50.488;2.544;2023-06-14T03:49:15;9.77;;;4.18;;
50731;SDS011;36700;50.488;2.544;2023-06-14T03:51:42;10.07;;;4.43;;
50731;SDS011;36700;50.488;2.544;2023-06-14T03:54:08;10.30;;;4.18;;
50731;SDS011;36700;50.488;2.544;2023-06-14T03:56:34;11.65;;;4.40;;
50731;SDS011;36700;50.488;2.544;2023-06-14T03:59:01;10.10;;;4.53;;
50731;SDS011;36700;50.488;2.544;2023-06-14T04:01:28;9.48;;;3.95;;
50731;SDS011;36700;50.488;2.544;2023-06-14T04:03:55;9.45;;;4.03;;
50731;SDS011;36700;50.488;2.544;2023-06-14T04:06:23;10.95;;;4.57;;
50731;SDS011;36700;50.488;2.544;2023-06-14T04:08:51;12.45;;;4.63;;
50731;SDS011;36700;50.488;2.544;2023-06-14T04:11:17;9.73;;;4.30;;
50731;SDS011;36700;50.488;2.544;2023-06-14T04:13:43;8.88;;;4.40;;
50731;SDS011;36700;50.488;2.544;2023-06-14T04:16:09;11.13;;;4.20;;
50731;SDS011;36700;50.488;2.544;2023-06-14T04:18:35;9.65;;;4.20;;
50731;SDS011;36700;50.488;2.544;2023-06-14T04:21:01;8.50;;;4.00;;
50731;SDS011;36700;50.488;2.544;2023-06-14T04:23:27;9.93;;;4.10;;
50731;SDS011;36700;50.488;2.544;2023-06-14T04:25:53;11.55;;;4.57;;
50731;SDS011;36700;50.488;2.544;2023-06-14T04:28:19;10.50;;;4.65;;
50731;SDS011;36700;50.488;2.544;2023-06-14T04:30:45;10.75;;;4.22;;
50731;SDS011;36700;50.488;2.544;2023-06-14T04:33:12;10.15;;;4.43;;
50731;SDS011;36700;50.488;2.544;2023-06-14T04:35:39;11.90;;;4.70;;
50731;SDS011;36700;50.488;2.544;2023-06-14T04:38:06;10.07;;;4.10;;
50731;SDS011;36700;50.488;2.544;2023-06-14T04:40:39;12.07;;;4.80;;
50731;SDS011;36700;50.488;2.544;2023-06-14T04:43:08;9.82;;;4.55;;
50731;SDS011;36700;50.488;2.544;2023-06-14T04:45:38;11.02;;;4.20;;
50731;SDS011;36700;50.488;2.544;2023-06-14T04:48:05;9.98;;;4.40;;
50731;SDS011;36700;50.488;2.544;2023-06-14T04:50:32;9.13;;;4.15;;
50731;SDS011;36700;50.488;2.544;2023-06-14T04:52:58;9.65;;;4.20;;
50731;SDS011;36700;50.488;2.544;2023-06-14T04:55:25;8.82;;;4.22;;
50731;SDS011;36700;50.488;2.544;2023-06-14T04:57:52;10.07;;;4.50;;
50731;SDS011;36700;50.488;2.544;2023-06-14T05:00:19;11.70;;;4.57;;
50731;SDS011;36700;50.488;2.544;2023-06-14T05:02:46;10.25;;;4.35;;
50731;SDS011;36700;50.488;2.544;2023-06-14T05:05:12;11.15;;;4.65;;
50731;SDS011;36700;50.488;2.544;2023-06-14T05:07:38;11.90;;;4.88;;
50731;SDS011;36700;50.488;2.544;2023-06-14T05:10:05;10.27;;;4.45;;
50731;SDS011;36700;50.488;2.544;2023-06-14T05:12:32;9.18;;;4.30;;
50731;SDS011;36700;50.488;2.544;2023-06-14T05:14:57;11.25;;;4.47;;
50731;SDS011;36700;50.488;2.544;2023-06-14T05:17:26;9.77;;;4.40;;
50731;SDS011;36700;50.488;2.544;2023-06-14T05:19:53;8.88;;;4.30;;
50731;SDS011;36700;50.488;2.544;2023-06-14T05:22:22;9.80;;;4.22;;
50731;SDS011;36700;50.488;2.544;2023-06-14T05:24:48;10.18;;;4.63;;
50731;SDS011;36700;50.488;2.544;2023-06-14T05:27:14;9.35;;;4.20;;
50731;SDS011;36700;50.488;2.544;2023-06-14T05:29:40;10.48;;;4.20;;
50731;SDS011;36700;50.488;2.544;2023-06-14T05:32:06;9.55;;;3.97;;
50731;SDS011;36700;50.488;2.544;2023-06-14T05:34:32;10.82;;;4.47;;
50731;SDS011;36700;50.488;2.544;2023-06-14T05:36:58;10.27;;;4.28;;
50731;SDS011;36700;50.488;2.544;2023-06-14T05:39:24;11.32;;;4.70;;
50731;SDS011;36700;50.488;2.544;2023-06-14T05:41:50;9.80;;;4.22;;
50731;SDS011;36700;50.488;2.544;2023-06-14T05:44:16;10.35;;;4.47;;
50731;SDS011;36700;50.488;2.544;2023-06-14T05:46:43;9.60;;;4.38;;
50731;SDS011;36700;50.488;2.544;2023-06-14T05:49:09;9.20;;;4.13;;
50731;SDS011;36700;50.488;2.544;2023-06-14T05:51:35;9.35;;;4.57;;
50731;SDS011;36700;50.488;2.544;2023-06-14T05:54:01;11.80;;;4.63;;
50731;SDS011;36700;50.488;2.544;2023-06-14T05:56:27;9.30;;;4.68;;
50731;SDS011;36700;50.488;2.544;2023-06-14T05:58:53;9.57;;;4.40;;
50731;SDS011;36700;50.488;2.544;2023-06-14T06:01:18;11.25;;;4.28;;
50731;SDS011;36700;50.488;2.544;2023-06-14T06:03:45;10.52;;;4.25;;
50731;SDS011;36700;50.488;2.544;2023-06-14T06:06:12;11.13;;;4.53;;
50731;SDS011;36700;50.488;2.544;2023-06-14T06:08:38;10.77;;;4.85;;
50731;SDS011;36700;50.488;2.544;2023-06-14T06:11:04;9.02;;;4.75;;
50731;SDS011;36700;50.488;2.544;2023-06-14T06:13:30;10.00;;;4.32;;
50731;SDS011;36700;50.488;2.544;2023-06-14T06:15:56;9.70;;;4.45;;
50731;SDS011;36700;50.488;2.544;2023-06-14T06:18:22;8.23;;;4.28;;
50731;SDS011;36700;50.488;2.544;2023-06-14T06:20:48;10.82;;;4.43;;
50731;SDS011;36700;50.488;2.544;2023-06-14T06:23:14;11.75;;;4.95;;
50731;SDS011;36700;50.488;2.544;2023-06-14T06:25:40;10.75;;;4.10;;
50731;SDS011;36700;50.488;2.544;2023-06-14T06:28:05;10.93;;;4.60;;
50731;SDS011;36700;50.488;2.544;2023-06-14T06:30:31;10.13;;;4.53;;
50731;SDS011;36700;50.488;2.544;2023-06-14T06:32:57;8.25;;;4.00;;
50731;SDS011;36700;50.488;2.544;2023-06-14T06:35:23;9.82;;;4.18;;
50731;SDS011;36700;50.488;2.544;2023-06-14T06:37:50;11.15;;;4.70;;
50731;SDS011;36700;50.488;2.544;2023-06-14T06:40:16;8.65;;;4.55;;
50731;SDS011;36700;50.488;2.544;2023-06-14T06:42:41;10.57;;;4.40;;
50731;SDS011;36700;50.488;2.544;2023-06-14T06:45:07;7.95;;;4.22;;
50731;SDS011;36700;50.488;2.544;2023-06-14T06:47:34;9.13;;;4.20;;
50731;SDS011;36700;50.488;2.544;2023-06-14T06:50:00;10.15;;;4.45;;
50731;SDS011;36700;50.488;2.544;2023-06-14T06:52:27;10.15;;;4.18;;
50731;SDS011;36700;50.488;2.544;2023-06-14T06:54:53;8.75;;;4.30;;
50731;SDS011;36700;50.488;2.544;2023-06-14T06:57:20;10.23;;;4.32;;
50731;SDS011;36700;50.488;2.544;2023-06-14T06:59:49;9.65;;;4.18;;
50731;SDS011;36700;50.488;2.544;2023-06-14T07:02:16;8.82;;;4.30;;
50731;SDS011;36700;50.488;2.544;2023-06-14T07:04:43;9.55;;;4.45;;
50731;SDS011;36700;50.488;2.544;2023-06-14T07:07:09;8.50;;;4.55;;
50731;SDS011;36700;50.488;2.544;2023-06-14T07:09:35;10.40;;;4.25;;
50731;SDS011;36700;50.488;2.544;2023-06-14T07:12:02;9.20;;;4.55;;
50731;SDS011;36700;50.488;2.544;2023-06-14T07:14:28;9.50;;;4.63;;
50731;SDS011;36700;50.488;2.544;2023-06-14T07:16:54;10.45;;;4.40;;
50731;SDS011;36700;50.488;2.544;2023-06-14T07:19:20;8.98;;;4.30;;
50731;SDS011;36700;50.488;2.544;2023-06-14T07:21:46;12.65;;;4.50;;
50731;SDS011;36700;50.488;2.544;2023-06-14T07:24:13;11.52;;;5.25;;
50731;SDS011;36700;50.488;2.544;2023-06-14T07:26:39;12.02;;;5.15;;
50731;SDS011;36700;50.488;2.544;2023-06-14T07:29:05;11.95;;;4.78;;
50731;SDS011;36700;50.488;2.544;2023-06-14T07:31:31;16.65;;;5.18;;
50731;SDS011;36700;50.488;2.544;2023-06-14T07:33:57;10.32;;;5.20;;
50731;SDS011;36700;50.488;2.544;2023-06-14T07:36:23;12.23;;;5.38;;
50731;SDS011;36700;50.488;2.544;2023-06-14T07:38:49;11.45;;;5.00;;
50731;SDS011;36700;50.488;2.544;2023-06-14T07:41:15;10.02;;;4.47;;
50731;SDS011;36700;50.488;2.544;2023-06-14T07:43:41;11.43;;;5.30;;
50731;SDS011;36700;50.488;2.544;2023-06-14T07:46:07;10.02;;;4.72;;
50731;SDS011;36700;50.488;2.544;2023-06-14T07:48:34;11.35;;;4.60;;
50731;SDS011;36700;50.488;2.544;2023-06-14T07:51:00;12.40;;;4.70;;
50731;SDS011;36700;50.488;2.544;2023-06-14T07:53:26;9.82;;;4.57;;
50731;SDS011;36700;50.488;2.544;2023-06-14T07:55:52;9.23;;;4.43;;
50731;SDS011;36700;50.488;2.544;2023-06-14T07:58:18;9.23;;;4.60;;
50731;SDS011;36700;50.488;2.544;2023-06-14T08:00:44;10.52;;;5.03;;
50731;SDS011;36700;50.488;2.544;2023-06-14T08:03:11;9.43;;;4.60;;
50731;SDS011;36700;50.488;2.544;2023-06-14T08:05:37;9.43;;;4.57;;
50731;SDS011;36700;50.488;2.544;2023-06-14T08:08:03;9.77;;;4.78;;
50731;SDS011;36700;50.488;2.544;2023-06-14T08:10:29;8.68;;;4.20;;
50731;SDS011;36700;50.488;2.544;2023-06-14T08:12:55;11.25;;;4.80;;
50731;SDS011;36700;50.488;2.544;2023-06-14T08:15:21;10.55;;;4.80;;
50731;SDS011;36700;50.488;2.544;2023-06-14T08:17:47;9.80;;;4.35;;
50731;SDS011;36700;50.488;2.544;2023-06-14T08:20:13;9.45;;;4.95;;
50731;SDS011;36700;50.488;2.544;2023-06-14T08:22:42;12.80;;;5.03;;
50731;SDS011;36700;50.488;2.544;2023-06-14T08:25:08;9.25;;;4.68;;
50731;SDS011;36700;50.488;2.544;2023-06-14T08:27:35;10.60;;;4.72;;
50731;SDS011;36700;50.488;2.544;2023-06-14T08:30:01;8.38;;;4.43;;
50731;SDS011;36700;50.488;2.544;2023-06-14T08:32:28;8.70;;;4.43;;
50731;SDS011;36700;50.488;2.544;2023-06-14T08:34:54;10.52;;;5.22;;
50731;SDS011;36700;50.488;2.544;2023-06-14T08:37:20;13.30;;;4.95;;
50731;SDS011;36700;50.488;2.544;2023-06-14T08:39:46;9.43;;;4.88;;
50731;SDS011;36700;50.488;2.544;2023-06-14T08:42:12;10.63;;;4.60;;
50731;SDS011;36700;50.488;2.544;2023-06-14T08:44:39;12.15;;;5.03;;
50731;SDS011;36700;50.488;2.544;2023-06-14T08:47:06;8.80;;;4.63;;
50731;SDS011;36700;50.488;2.544;2023-06-14T08:49:34;8.07;;;4.55;;
50731;SDS011;36700;50.488;2.544;2023-06-14T08:52:03;9.90;;;4.85;;
50731;SDS011;36700;50.488;2.544;2023-06-14T08:54:33;12.57;;;6.63;;
50731;SDS011;36700;50.488;2.544;2023-06-14T08:57:02;12.45;;;5.35;;
50731;SDS011;36700;50.488;2.544;2023-06-14T08:59:29;10.05;;;5.22;;
50731;SDS011;36700;50.488;2.544;2023-06-14T09:01:59;17.17;;;7.60;;
50731;SDS011;36700;50.488;2.544;2023-06-14T09:04:25;14.55;;;7.82;;
50731;SDS011;36700;50.488;2.544;2023-06-14T09:06:55;15.43;;;6.85;;
50731;SDS011;36700;50.488;2.544;2023-06-14T09:09:22;12.55;;;6.40;;
50731;SDS011;36700;50.488;2.544;2023-06-14T09:11:54;16.65;;;8.65;;
50731;SDS011;36700;50.488;2.544;2023-06-14T09:14:23;15.05;;;7.88;;
50731;SDS011;36700;50.488;2.544;2023-06-14T09:16:52;17.50;;;7.35;;
50731;SDS011;36700;50.488;2.544;2023-06-14T09:19:25;14.45;;;7.00;;
50731;SDS011;36700;50.488;2.544;2023-06-14T09:24:18;12.88;;;6.32;;
50731;SDS011;36700;50.488;2.544;2023-06-14T09:26:47;11.77;;;6.63;;
50731;SDS011;36700;50.488;2.544;2023-06-14T09:29:13;13.45;;;7.05;;
50731;SDS011;36700;50.488;2.544;2023-06-14T09:31:42;14.25;;;6.60;;
50731;SDS011;36700;50.488;2.544;2023-06-14T09:34:08;11.90;;;6.60;;
50731;SDS011;36700;50.488;2.544;2023-06-14T09:36:34;12.82;;;6.60;;
50731;SDS011;36700;50.488;2.544;2023-06-14T09:39:02;12.68;;;6.20;;
50731;SDS011;36700;50.488;2.544;2023-06-14T09:41:36;12.98;;;6.40;;
50731;SDS011;36700;50.488;2.544;2023-06-14T09:44:04;11.35;;;6.53;;
50731;SDS011;36700;50.488;2.544;2023-06-14T09:46:35;14.52;;;6.38;;
50731;SDS011;36700;50.488;2.544;2023-06-14T09:49:02;13.35;;;6.45;;
50731;SDS011;36700;50.488;2.544;2023-06-14T09:51:29;11.02;;;6.20;;
50731;SDS011;36700;50.488;2.544;2023-06-14T09:53:59;12.10;;;6.50;;
50731;SDS011;36700;50.488;2.544;2023-06-14T09:56:27;14.45;;;7.18;;
50731;SDS011;36700;50.488;2.544;2023-06-14T09:58:55;10.82;;;6.57;;
50731;SDS011;36700;50.488;2.544;2023-06-14T10:01:23;10.75;;;6.10;;
50731;SDS011;36700;50.488;2.544;2023-06-14T10:03:55;11.27;;;5.85;;
50731;SDS011;36700;50.488;2.544;2023-06-14T10:06:26;11.70;;;6.22;;
50731;SDS011;36700;50.488;2.544;2023-06-14T10:08:55;12.38;;;6.30;;
50731;SDS011;36700;50.488;2.544;2023-06-14T10:11:25;11.05;;;6.47;;
50731;SDS011;36700;50.488;2.544;2023-06-14T10:13:52;12.50;;;6.50;;
50731;SDS011;36700;50.488;2.544;2023-06-14T10:16:27;12.63;;;6.68;;
50731;SDS011;36700;50.488;2.544;2023-06-14T10:24:42;11.93;;;6.00;;
50731;SDS011;36700;50.488;2.544;2023-06-14T10:27:09;10.80;;;6.30;;
50731;SDS011;36700;50.488;2.544;2023-06-14T10:32:18;13.90;;;6.53;;
50731;SDS011;36700;50.488;2.544;2023-06-14T10:34:51;13.85;;;6.57;;
50731;SDS011;36700;50.488;2.544;2023-06-14T10:37:19;13.07;;;6.47;;
50731;SDS011;36700;50.488;2.544;2023-06-14T10:39:45;12.18;;;6.03;;
50731;SDS011;36700;50.488;2.544;2023-06-14T10:42:11;12.32;;;6.18;;
50731;SDS011;36700;50.488;2.544;2023-06-14T10:47:33;10.63;;;6.28;;
50731;SDS011;36700;50.488;2.544;2023-06-14T10:50:10;10.43;;;6.18;;
50731;SDS011;36700;50.488;2.544;2023-06-14T10:52:39;12.73;;;6.75;;
50731;SDS011;36700;50.488;2.544;2023-06-14T10:55:10;11.30;;;5.85;;
50731;SDS011;36700;50.488;2.544;2023-06-14T11:00:17;11.60;;;5.65;;
50731;SDS011;36700;50.488;2.544;2023-06-14T11:05:49;10.98;;;5.65;;
50731;SDS011;36700;50.488;2.544;2023-06-14T11:11:41;10.70;;;5.50;;
50731;SDS011;36700;50.488;2.544;2023-06-14T11:14:08;10.45;;;5.80;;
50731;SDS011;36700;50.488;2.544;2023-06-14T11:16:35;13.32;;;5.85;;
50731;SDS011;36700;50.488;2.544;2023-06-14T11:19:02;11.02;;;5.75;;
50731;SDS011;36700;50.488;2.544;2023-06-14T11:21:33;10.30;;;5.63;;
50731;SDS011;36700;50.488;2.544;2023-06-14T11:23:59;11.48;;;5.20;;
50731;SDS011;36700;50.488;2.544;2023-06-14T11:26:29;9.50;;;5.40;;
50731;SDS011;36700;50.488;2.544;2023-06-14T11:28:59;9.45;;;5.47;;
50731;SDS011;36700;50.488;2.544;2023-06-14T11:31:27;10.13;;;5.32;;
50731;SDS011;36700;50.488;2.544;2023-06-14T11:33:54;9.77;;;5.55;;
50731;SDS011;36700;50.488;2.544;2023-06-14T11:36:22;18.92;;;5.63;;
50731;SDS011;36700;50.488;2.544;2023-06-14T11:38:49;9.40;;;5.10;;
50731;SDS011;36700;50.488;2.544;2023-06-14T11:41:15;11.57;;;5.70;;
50731;SDS011;36700;50.488;2.544;2023-06-14T11:43:41;8.75;;;5.03;;
50731;SDS011;36700;50.488;2.544;2023-06-14T11:46:13;9.85;;;5.15;;
50731;SDS011;36700;50.488;2.544;2023-06-14T11:48:41;8.80;;;4.97;;
50731;SDS011;36700;50.488;2.544;2023-06-14T11:51:08;11.40;;;5.55;;
50731;SDS011;36700;50.488;2.544;2023-06-14T11:53:34;8.82;;;5.22;;
50731;SDS011;36700;50.488;2.544;2023-06-14T11:56:00;8.73;;;4.97;;
50731;SDS011;36700;50.488;2.544;2023-06-14T11:58:27;9.98;;;5.40;;
50731;SDS011;36700;50.488;2.544;2023-06-14T12:00:55;10.20;;;5.13;;
50731;SDS011;36700;50.488;2.544;2023-06-14T12:03:24;11.23;;;5.55;;
50731;SDS011;36700;50.488;2.544;2023-06-14T12:06:01;11.60;;;5.57;;
50731;SDS011;36700;50.488;2.544;2023-06-14T12:08:37;13.45;;;5.93;;
50731;SDS011;36700;50.488;2.544;2023-06-14T12:11:10;11.40;;;5.40;;
50731;SDS011;36700;50.488;2.544;2023-06-14T12:13:40;10.13;;;5.82;;
50731;SDS011;36700;50.488;2.544;2023-06-14T12:16:07;8.95;;;5.28;;
50731;SDS011;36700;50.488;2.544;2023-06-14T12:18:35;10.82;;;5.60;;
50731;SDS011;36700;50.488;2.544;2023-06-14T12:21:05;10.18;;;5.38;;
50731;SDS011;36700;50.488;2.544;2023-06-14T12:24:05;10.70;;;5.72;;
50731;SDS011;36700;50.488;2.544;2023-06-14T12:26:24;10.00;;;5.45;;
50731;SDS011;36700;50.488;2.544;2023-06-14T12:28:52;12.82;;;5.90;;
50731;SDS011;36700;50.488;2.544;2023-06-14T12:31:18;11.73;;;5.70;;
50731;SDS011;36700;50.488;2.544;2023-06-14T12:33:46;10.02;;;5.65;;
50731;SDS011;36700;50.488;2.544;2023-06-14T12:36:14;12.15;;;5.88;;
50731;SDS011;36700;50.488;2.544;2023-06-14T12:38:40;10.40;;;5.35;;
50731;SDS011;36700;50.488;2.544;2023-06-14T12:41:07;10.07;;;5.57;;
50731;SDS011;36700;50.488;2.544;2023-06-14T12:43:33;10.98;;;6.03;;
50731;SDS011;36700;50.488;2.544;2023-06-14T12:46:00;9.20;;;5.60;;
50731;SDS011;36700;50.488;2.544;2023-06-14T12:48:26;9.93;;;5.55;;
50731;SDS011;36700;50.488;2.544;2023-06-14T12:50:57;10.20;;;5.80;;
50731;SDS011;36700;50.488;2.544;2023-06-14T12:53:24;9.07;;;5.40;;
50731;SDS011;36700;50.488;2.544;2023-06-14T12:55:50;9.95;;;5.50;;
50731;SDS011;36700;50.488;2.544;2023-06-14T12:58:16;10.65;;;5.50;;
50731;SDS011;36700;50.488;2.544;2023-06-14T13:00:45;11.15;;;5.20;;
50731;SDS011;36700;50.488;2.544;2023-06-14T13:03:11;10.65;;;6.03;;
50731;SDS011;36700;50.488;2.544;2023-06-14T13:05:37;10.35;;;5.68;;
50731;SDS011;36700;50.488;2.544;2023-06-14T13:08:06;10.35;;;5.78;;
50731;SDS011;36700;50.488;2.544;2023-06-14T13:10:33;8.73;;;5.05;;
50731;SDS011;36700;50.488;2.544;2023-06-14T13:13:00;10.57;;;6.00;;
50731;SDS011;36700;50.488;2.544;2023-06-14T13:15:26;9.43;;;5.50;;
50731;SDS011;36700;50.488;2.544;2023-06-14T13:17:52;10.63;;;5.82;;
50731;SDS011;36700;50.488;2.544;2023-06-14T13:20:19;10.15;;;5.38;;
50731;SDS011;36700;50.488;2.544;2023-06-14T13:22:45;9.52;;;5.68;;
50731;SDS011;36700;50.488;2.544;2023-06-14T13:25:11;9.55;;;5.47;;
50731;SDS011;36700;50.488;2.544;2023-06-14T13:27:37;10.15;;;5.25;;
50731;SDS011;36700;50.488;2.544;2023-06-14T13:30:03;9.32;;;5.18;;
50731;SDS011;36700;50.488;2.544;2023-06-14T13:32:31;10.70;;;5.82;;
50731;SDS011;36700;50.488;2.544;2023-06-14T13:34:57;10.77;;;5.40;;
50731;SDS011;36700;50.488;2.544;2023-06-14T13:37:23;8.07;;;5.28;;
50731;SDS011;36700;50.488;2.544;2023-06-14T13:39:49;9.88;;;5.63;;
50731;SDS011;36700;50.488;2.544;2023-06-14T13:42:15;10.13;;;5.72;;
50731;SDS011;36700;50.488;2.544;2023-06-14T13:44:41;24.80;;;6.65;;
50731;SDS011;36700;50.488;2.544;2023-06-14T13:47:07;21.98;;;6.75;;
50731;SDS011;36700;50.488;2.544;2023-06-14T13:49:33;15.82;;;6.43;;
50731;SDS011;36700;50.488;2.544;2023-06-14T13:52:00;17.13;;;6.30;;
50731;SDS011;36700;50.488;2.544;2023-06-14T13:54:26;44.17;;;6.93;;
50731;SDS011;36700;50.488;2.544;2023-06-14T13:56:53;21.33;;;6.50;;
50731;SDS011;36700;50.488;2.544;2023-06-14T13:59:19;15.93;;;6.15;;
50731;SDS011;36700;50.488;2.544;2023-06-14T14:01:45;16.85;;;6.47;;
50731;SDS011;36700;50.488;2.544;2023-06-14T14:04:11;15.40;;;5.70;;
50731;SDS011;36700;50.488;2.544;2023-06-14T14:06:37;15.98;;;6.25;;
50731;SDS011;36700;50.488;2.544;2023-06-14T14:09:03;24.80;;;6.00;;
50731;SDS011;36700;50.488;2.544;2023-06-14T14:11:29;13.73;;;6.22;;
50731;SDS011;36700;50.488;2.544;2023-06-14T14:13:58;11.93;;;5.95;;
50731;SDS011;36700;50.488;2.544;2023-06-14T14:16:24;15.38;;;6.13;;
50731;SDS011;36700;50.488;2.544;2023-06-14T14:18:51;12.98;;;5.95;;
50731;SDS011;36700;50.488;2.544;2023-06-14T14:21:17;12.77;;;5.65;;
50731;SDS011;36700;50.488;2.544;2023-06-14T14:23:43;14.02;;;6.38;;
50731;SDS011;36700;50.488;2.544;2023-06-14T14:26:10;14.57;;;6.93;;
50731;SDS011;36700;50.488;2.544;2023-06-14T14:28:36;12.68;;;5.70;;
50731;SDS011;36700;50.488;2.544;2023-06-14T14:31:02;16.80;;;6.25;;
50731;SDS011;36700;50.488;2.544;2023-06-14T14:33:28;14.73;;;5.78;;
50731;SDS011;36700;50.488;2.544;2023-06-14T14:35:54;12.25;;;6.03;;
50731;SDS011;36700;50.488;2.544;2023-06-14T14:38:23;13.77;;;6.00;;
50731;SDS011;36700;50.488;2.544;2023-06-14T14:40:49;11.93;;;6.38;;
50731;SDS011;36700;50.488;2.544;2023-06-14T14:43:15;12.98;;;5.82;;
50731;SDS011;36700;50.488;2.544;2023-06-14T14:45:41;11.65;;;6.25;;
50731;SDS011;36700;50.488;2.544;2023-06-14T14:48:07;12.88;;;5.70;;
50731;SDS011;36700;50.488;2.544;2023-06-14T14:50:33;15.30;;;6.60;;
50731;SDS011;36700;50.488;2.544;2023-06-14T14:52:59;13.70;;;6.28;;
50731;SDS011;36700;50.488;2.544;2023-06-14T14:55:26;11.27;;;6.47;;
50731;SDS011;36700;50.488;2.544;2023-06-14T14:57:52;11.32;;;6.10;;
50731;SDS011;36700;50.488;2.544;2023-06-14T15:00:18;9.70;;;5.30;;
50731;SDS011;36700;50.488;2.544;2023-06-14T15:02:44;11.85;;;5.97;;